sensor_id;sensor_type;location;lat;lon;timestamp;P1;durP1;ratioP1;P2;durP2;ratioP2
6173;SDS011;3120;48.796;9.796;2024-02-23T00:02:08;0.15;;;0.10;;
6173;SDS011;3120;48.796;9.796;2024-02-23T00:04:34;0.10;;;0.10;;
6173;SDS011;3120;48.796;9.796;2024-02-23T00:06:59;1.63;;;0.20;;
6173;SDS011;3120;48.796;9.796;2024-02-23T00:09:27;0.30;;;0.13;;
6173;SDS011;3120;48.796;9.796;2024-02-23T00:11:53;0.15;;;0.10;;
6173;SDS011;3120;48.796;9.796;2024-02-23T00:14:20;0.10;;;0.10;;
6173;SDS011;3120;48.796;9.796;2024-02-23T00:16:46;0.70;;;0.10;;
6173;SDS011;3120;48.796;9.796;2024-02-23T00:19:11;1.30;;;0.20;;
6173;SDS011;3120;48.796;9.796;2024-02-23T00:21:38;0.10;;;0.10;;
6173;SDS011;3120;48.796;9.796;2024-02-23T00:24:05;0.73;;;0.13;;
6173;SDS011;3120;48.796;9.796;2024-02-23T00:26:31;0.10;;;0.10;;
6173;SDS011;3120;48.796;9.796;2024-02-23T00:28:56;0.35;;;0.10;;
6173;SDS011;3120;48.796;9.796;2024-02-23T00:31:22;0.10;;;0.10;;
6173;SDS011;3120;48.796;9.796;2024-02-23T00:33:48;2.10;;;0.20;;
6173;SDS011;3120;48.796;9.796;2024-02-23T00:36:13;0.10;;;0.10;;
6173;SDS011;3120;48.796;9.796;2024-02-23T00:38:39;0.70;;;0.10;;
6173;SDS011;3120;48.796;9.796;2024-02-23T00:41:05;0.17;;;0.10;;
6173;SDS011;3120;48.796;9.796;2024-02-23T00:43:37;0.10;;;0.10;;
6173;SDS011;3120;48.796;9.796;2024-02-23T00:46:09;0.03;;;0.03;;
6173;SDS011;3120;48.796;9.796;2024-02-23T00:48:34;0.15;;;0.08;;
6173;SDS011;3120;48.796;9.796;2024-02-23T00:51:03;0.10;;;0.10;;
6173;SDS011;3120;48.796;9.796;2024-02-23T00:53:30;0.60;;;0.10;;
6173;SDS011;3120;48.796;9.796;2024-02-23T00:55:57;0.10;;;0.10;;
6173;SDS011;3120;48.796;9.796;2024-02-23T00:58:22;0.85;;;0.10;;
6173;SDS011;3120;48.796;9.796;2024-02-23T01:00:48;0.00;;;0.00;;
6173;SDS011;3120;48.796;9.796;2024-02-23T01:03:13;0.10;;;0.10;;
6173;SDS011;3120;48.796;9.796;2024-02-23T01:05:39;0.10;;;0.10;;
6173;SDS011;3120;48.796;9.796;2024-02-23T01:08:05;0.10;;;0.10;;
6173;SDS011;3120;48.796;9.796;2024-02-23T01:10:30;0.00;;;0.00;;
6173;SDS011;3120;48.796;9.796;2024-02-23T01:12:56;0.45;;;0.10;;
6173;SDS011;3120;48.796;9.796;2024-02-23T01:15:22;0.65;;;0.20;;
6173;SDS011;3120;48.796;9.796;2024-02-23T01:17:47;0.20;;;0.17;;
6173;SDS011;3120;48.796;9.796;2024-02-23T01:20:13;0.40;;;0.10;;
6173;SDS011;3120;48.796;9.796;2024-02-23T01:22:39;0.25;;;0.10;;
6173;SDS011;3120;48.796;9.796;2024-02-23T01:25:04;0.20;;;0.10;;
6173;SDS011;3120;48.796;9.796;2024-02-23T01:27:30;1.55;;;0.10;;
6173;SDS011;3120;48.796;9.796;2024-02-23T01:29:55;0.20;;;0.20;;
6173;SDS011;3120;48.796;9.796;2024-02-23T01:32:21;0.55;;;0.10;;
6173;SDS011;3120;48.796;9.796;2024-02-23T01:34:47;0.10;;;0.10;;
6173;SDS011;3120;48.796;9.796;2024-02-23T01:37:13;1.42;;;0.20;;
6173;SDS011;3120;48.796;9.796;2024-02-23T01:39:38;0.55;;;0.10;;
6173;SDS011;3120;48.796;9.796;2024-02-23T01:42:07;1.23;;;0.15;;
6173;SDS011;3120;48.796;9.796;2024-02-23T01:44:33;0.57;;;0.10;;
6173;SDS011;3120;48.796;9.796;2024-02-23T01:46:59;1.00;;;0.17;;
6173;SDS011;3120;48.796;9.796;2024-02-23T01:49:24;0.10;;;0.10;;
6173;SDS011;3120;48.796;9.796;2024-02-23T01:51:57;0.52;;;0.22;;
6173;SDS011;3120;48.796;9.796;2024-02-23T01:54:23;1.17;;;0.28;;
6173;SDS011;3120;48.796;9.796;2024-02-23T01:56:49;0.10;;;0.10;;
6173;SDS011;3120;48.796;9.796;2024-02-23T01:59:15;0.90;;;0.13;;
6173;SDS011;3120;48.796;9.796;2024-02-23T02:01:42;0.22;;;0.10;;
6173;SDS011;3120;48.796;9.796;2024-02-23T02:04:09;0.20;;;0.20;;
6173;SDS011;3120;48.796;9.796;2024-02-23T02:06:35;0.40;;;0.17;;
6173;SDS011;3120;48.796;9.796;2024-02-23T02:09:01;0.70;;;0.20;;
6173;SDS011;3120;48.796;9.796;2024-02-23T02:11:27;1.35;;;0.20;;
6173;SDS011;3120;48.796;9.796;2024-02-23T02:13:52;0.10;;;0.10;;
6173;SDS011;3120;48.796;9.796;2024-02-23T02:16:18;1.10;;;0.20;;
6173;SDS011;3120;48.796;9.796;2024-02-23T02:18:43;2.95;;;0.35;;
6173;SDS011;3120;48.796;9.796;2024-02-23T02:21:10;3.47;;;0.38;;
6173;SDS011;3120;48.796;9.796;2024-02-23T02:23:37;2.28;;;0.30;;
6173;SDS011;3120;48.796;9.796;2024-02-23T02:26:02;0.80;;;0.20;;
6173;SDS011;3120;48.796;9.796;2024-02-23T02:28:28;2.90;;;0.30;;
6173;SDS011;3120;48.796;9.796;2024-02-23T02:30:54;2.13;;;0.40;;
6173;SDS011;3120;48.796;9.796;2024-02-23T02:33:20;3.92;;;0.30;;
6173;SDS011;3120;48.796;9.796;2024-02-23T02:35:47;2.35;;;0.20;;
6173;SDS011;3120;48.796;9.796;2024-02-23T02:38:12;2.75;;;0.22;;
6173;SDS011;3120;48.796;9.796;2024-02-23T02:40:38;5.25;;;0.20;;
6173;SDS011;3120;48.796;9.796;2024-02-23T02:43:04;2.47;;;0.40;;
6173;SDS011;3120;48.796;9.796;2024-02-23T02:45:30;2.33;;;0.25;;
6173;SDS011;3120;48.796;9.796;2024-02-23T02:47:56;4.05;;;0.40;;
6173;SDS011;3120;48.796;9.796;2024-02-23T02:50:22;2.42;;;0.38;;
6173;SDS011;3120;48.796;9.796;2024-02-23T02:52:47;1.65;;;0.20;;
6173;SDS011;3120;48.796;9.796;2024-02-23T02:55:13;3.03;;;0.35;;
6173;SDS011;3120;48.796;9.796;2024-02-23T02:57:39;3.55;;;0.50;;
6173;SDS011;3120;48.796;9.796;2024-02-23T03:00:04;6.53;;;0.52;;
6173;SDS011;3120;48.796;9.796;2024-02-23T03:02:31;2.80;;;0.45;;
6173;SDS011;3120;48.796;9.796;2024-02-23T03:04:57;3.50;;;0.38;;
6173;SDS011;3120;48.796;9.796;2024-02-23T03:07:22;3.17;;;0.28;;
6173;SDS011;3120;48.796;9.796;2024-02-23T03:09:48;7.75;;;0.50;;
6173;SDS011;3120;48.796;9.796;2024-02-23T03:12:15;4.05;;;0.30;;
6173;SDS011;3120;48.796;9.796;2024-02-23T03:14:41;0.90;;;0.20;;
6173;SDS011;3120;48.796;9.796;2024-02-23T03:17:07;3.88;;;0.40;;
6173;SDS011;3120;48.796;9.796;2024-02-23T03:19:34;0.75;;;0.10;;
6173;SDS011;3120;48.796;9.796;2024-02-23T03:22:01;0.98;;;0.20;;
6173;SDS011;3120;48.796;9.796;2024-02-23T03:24:27;0.50;;;0.20;;
6173;SDS011;3120;48.796;9.796;2024-02-23T03:26:52;4.88;;;0.40;;
6173;SDS011;3120;48.796;9.796;2024-02-23T03:29:18;0.80;;;0.43;;
6173;SDS011;3120;48.796;9.796;2024-02-23T03:31:43;2.75;;;0.40;;
6173;SDS011;3120;48.796;9.796;2024-02-23T03:34:09;3.53;;;0.80;;
6173;SDS011;3120;48.796;9.796;2024-02-23T03:36:34;7.88;;;0.47;;
6173;SDS011;3120;48.796;9.796;2024-02-23T03:39:01;1.23;;;0.38;;
6173;SDS011;3120;48.796;9.796;2024-02-23T03:41:27;1.38;;;0.30;;
6173;SDS011;3120;48.796;9.796;2024-02-23T03:43:52;1.45;;;0.30;;
6173;SDS011;3120;48.796;9.796;2024-02-23T03:46:18;0.47;;;0.22;;
6173;SDS011;3120;48.796;9.796;2024-02-23T03:48:44;3.42;;;0.80;;
6173;SDS011;3120;48.796;9.796;2024-02-23T03:51:10;1.13;;;0.35;;
6173;SDS011;3120;48.796;9.796;2024-02-23T03:53:35;3.60;;;0.40;;
6173;SDS011;3120;48.796;9.796;2024-02-23T03:56:01;1.73;;;0.30;;
6173;SDS011;3120;48.796;9.796;2024-02-23T03:58:27;4.30;;;0.38;;
6173;SDS011;3120;48.796;9.796;2024-02-23T04:00:53;1.83;;;0.30;;
6173;SDS011;3120;48.796;9.796;2024-02-23T04:03:19;3.17;;;0.47;;
6173;SDS011;3120;48.796;9.796;2024-02-23T04:05:44;2.30;;;0.55;;
6173;SDS011;3120;48.796;9.796;2024-02-23T04:10:38;1.17;;;0.40;;
6173;SDS011;3120;48.796;9.796;2024-02-23T04:13:03;2.30;;;0.30;;
6173;SDS011;3120;48.796;9.796;2024-02-23T04:15:29;1.05;;;0.35;;
6173;SDS011;3120;48.796;9.796;2024-02-23T04:17:54;1.45;;;0.30;;
6173;SDS011;3120;48.796;9.796;2024-02-23T04:20:20;4.20;;;0.38;;
6173;SDS011;3120;48.796;9.796;2024-02-23T04:22:46;2.17;;;0.30;;
6173;SDS011;3120;48.796;9.796;2024-02-23T04:25:11;2.05;;;0.40;;
6173;SDS011;3120;48.796;9.796;2024-02-23T04:27:37;4.65;;;0.28;;
6173;SDS011;3120;48.796;9.796;2024-02-23T04:30:03;2.05;;;0.30;;
6173;SDS011;3120;48.796;9.796;2024-02-23T04:32:29;0.73;;;0.30;;
6173;SDS011;3120;48.796;9.796;2024-02-23T04:34:55;3.58;;;0.40;;
6173;SDS011;3120;48.796;9.796;2024-02-23T04:37:21;1.45;;;0.30;;
6173;SDS011;3120;48.796;9.796;2024-02-23T04:39:46;1.95;;;0.52;;
6173;SDS011;3120;48.796;9.796;2024-02-23T04:42:12;1.40;;;0.28;;
6173;SDS011;3120;48.796;9.796;2024-02-23T04:44:37;1.77;;;0.38;;
6173;SDS011;3120;48.796;9.796;2024-02-23T04:47:03;1.85;;;0.30;;
6173;SDS011;3120;48.796;9.796;2024-02-23T04:49:29;4.50;;;0.50;;
6173;SDS011;3120;48.796;9.796;2024-02-23T04:51:55;6.18;;;0.40;;
6173;SDS011;3120;48.796;9.796;2024-02-23T04:54:20;5.25;;;0.50;;
6173;SDS011;3120;48.796;9.796;2024-02-23T04:56:46;8.32;;;0.50;;
6173;SDS011;3120;48.796;9.796;2024-02-23T04:59:12;2.15;;;0.70;;
6173;SDS011;3120;48.796;9.796;2024-02-23T05:01:38;1.25;;;0.30;;
6173;SDS011;3120;48.796;9.796;2024-02-23T05:04:04;3.25;;;0.40;;
6173;SDS011;3120;48.796;9.796;2024-02-23T05:06:30;5.57;;;0.43;;
6173;SDS011;3120;48.796;9.796;2024-02-23T05:08:55;1.15;;;0.30;;
6173;SDS011;3120;48.796;9.796;2024-02-23T05:11:21;4.47;;;0.47;;
6173;SDS011;3120;48.796;9.796;2024-02-23T05:13:47;0.82;;;0.30;;
6173;SDS011;3120;48.796;9.796;2024-02-23T05:16:13;3.20;;;0.32;;
6173;SDS011;3120;48.796;9.796;2024-02-23T05:18:39;1.83;;;0.47;;
6173;SDS011;3120;48.796;9.796;2024-02-23T05:21:06;0.95;;;0.47;;
6173;SDS011;3120;48.796;9.796;2024-02-23T05:23:32;0.82;;;0.30;;
6173;SDS011;3120;48.796;9.796;2024-02-23T05:25:57;0.70;;;0.30;;
6173;SDS011;3120;48.796;9.796;2024-02-23T05:28:23;8.00;;;0.73;;
6173;SDS011;3120;48.796;9.796;2024-02-23T05:30:49;4.22;;;0.60;;
6173;SDS011;3120;48.796;9.796;2024-02-23T05:33:14;9.52;;;2.42;;
6173;SDS011;3120;48.796;9.796;2024-02-23T05:35:40;1.95;;;0.70;;
6173;SDS011;3120;48.796;9.796;2024-02-23T05:38:05;1.40;;;0.68;;
6173;SDS011;3120;48.796;9.796;2024-02-23T05:40:31;59.40;;;15.70;;
6173;SDS011;3120;48.796;9.796;2024-02-23T05:42:57;10.13;;;2.95;;
6173;SDS011;3120;48.796;9.796;2024-02-23T05:45:23;19.77;;;6.93;;
6173;SDS011;3120;48.796;9.796;2024-02-23T05:47:49;2.67;;;0.60;;
6173;SDS011;3120;48.796;9.796;2024-02-23T05:50:15;2.63;;;1.10;;
6173;SDS011;3120;48.796;9.796;2024-02-23T05:52:40;4.70;;;1.58;;
6173;SDS011;3120;48.796;9.796;2024-02-23T05:55:06;2.60;;;0.70;;
6173;SDS011;3120;48.796;9.796;2024-02-23T05:57:32;29.15;;;7.70;;
6173;SDS011;3120;48.796;9.796;2024-02-23T05:59:58;21.55;;;7.30;;
6173;SDS011;3120;48.796;9.796;2024-02-23T06:02:24;12.07;;;3.55;;
6173;SDS011;3120;48.796;9.796;2024-02-23T06:04:50;2.17;;;0.90;;
6173;SDS011;3120;48.796;9.796;2024-02-23T06:07:15;1.42;;;0.43;;
6173;SDS011;3120;48.796;9.796;2024-02-23T06:09:41;2.88;;;0.50;;
6173;SDS011;3120;48.796;9.796;2024-02-23T06:12:07;6.13;;;1.20;;
6173;SDS011;3120;48.796;9.796;2024-02-23T06:14:33;16.05;;;6.65;;
6173;SDS011;3120;48.796;9.796;2024-02-23T06:16:59;81.22;;;31.17;;
6173;SDS011;3120;48.796;9.796;2024-02-23T06:19:25;111.60;;;45.28;;
6173;SDS011;3120;48.796;9.796;2024-02-23T06:21:50;97.28;;;45.05;;
6173;SDS011;3120;48.796;9.796;2024-02-23T06:24:16;54.38;;;23.20;;
6173;SDS011;3120;48.796;9.796;2024-02-23T06:26:42;31.48;;;12.75;;
6173;SDS011;3120;48.796;9.796;2024-02-23T06:29:08;16.88;;;7.45;;
6173;SDS011;3120;48.796;9.796;2024-02-23T06:31:36;13.38;;;4.68;;
6173;SDS011;3120;48.796;9.796;2024-02-23T06:34:03;5.50;;;2.50;;
6173;SDS011;3120;48.796;9.796;2024-02-23T06:36:28;5.13;;;1.17;;
6173;SDS011;3120;48.796;9.796;2024-02-23T06:38:54;3.80;;;1.63;;
6173;SDS011;3120;48.796;9.796;2024-02-23T06:41:20;9.40;;;1.60;;
6173;SDS011;3120;48.796;9.796;2024-02-23T06:43:45;13.23;;;1.45;;
6173;SDS011;3120;48.796;9.796;2024-02-23T06:46:11;3.15;;;0.70;;
6173;SDS011;3120;48.796;9.796;2024-02-23T06:48:36;3.97;;;0.77;;
6173;SDS011;3120;48.796;9.796;2024-02-23T06:51:05;2.97;;;0.98;;
6173;SDS011;3120;48.796;9.796;2024-02-23T06:53:34;2.20;;;0.95;;
6173;SDS011;3120;48.796;9.796;2024-02-23T06:56:00;1.63;;;0.55;;
6173;SDS011;3120;48.796;9.796;2024-02-23T06:58:26;2.90;;;0.60;;
6173;SDS011;3120;48.796;9.796;2024-02-23T07:00:51;4.90;;;0.65;;
6173;SDS011;3120;48.796;9.796;2024-02-23T07:03:17;4.00;;;1.10;;
6173;SDS011;3120;48.796;9.796;2024-02-23T07:05:43;3.17;;;0.55;;
6173;SDS011;3120;48.796;9.796;2024-02-23T07:08:08;3.88;;;0.90;;
6173;SDS011;3120;48.796;9.796;2024-02-23T07:10:34;1.73;;;0.90;;
6173;SDS011;3120;48.796;9.796;2024-02-23T07:13:01;1.92;;;1.52;;
6173;SDS011;3120;48.796;9.796;2024-02-23T07:15:26;7.65;;;2.25;;
6173;SDS011;3120;48.796;9.796;2024-02-23T07:17:52;5.50;;;1.85;;
6173;SDS011;3120;48.796;9.796;2024-02-23T07:20:17;5.03;;;1.50;;
6173;SDS011;3120;48.796;9.796;2024-02-23T07:22:46;5.72;;;0.80;;
6173;SDS011;3120;48.796;9.796;2024-02-23T07:25:15;2.85;;;0.50;;
6173;SDS011;3120;48.796;9.796;2024-02-23T07:27:47;5.97;;;0.63;;
6173;SDS011;3120;48.796;9.796;2024-02-23T07:30:16;1.80;;;0.68;;
6173;SDS011;3120;48.796;9.796;2024-02-23T07:32:42;2.05;;;0.40;;
6173;SDS011;3120;48.796;9.796;2024-02-23T07:35:11;1.88;;;0.60;;
6173;SDS011;3120;48.796;9.796;2024-02-23T07:37:37;2.85;;;0.50;;
6173;SDS011;3120;48.796;9.796;2024-02-23T07:40:03;2.60;;;0.80;;
6173;SDS011;3120;48.796;9.796;2024-02-23T07:42:32;2.60;;;0.82;;
6173;SDS011;3120;48.796;9.796;2024-02-23T07:44:58;4.78;;;1.35;;
6173;SDS011;3120;48.796;9.796;2024-02-23T07:47:23;108.03;;;32.15;;
6173;SDS011;3120;48.796;9.796;2024-02-23T07:49:51;22.80;;;7.22;;
6173;SDS011;3120;48.796;9.796;2024-02-23T07:52:17;9.75;;;3.03;;
6173;SDS011;3120;48.796;9.796;2024-02-23T07:54:42;3.58;;;1.65;;
6173;SDS011;3120;48.796;9.796;2024-02-23T07:57:08;5.57;;;0.82;;
6173;SDS011;3120;48.796;9.796;2024-02-23T07:59:34;2.90;;;1.25;;
6173;SDS011;3120;48.796;9.796;2024-02-23T08:02:00;5.00;;;1.33;;
6173;SDS011;3120;48.796;9.796;2024-02-23T08:04:25;5.47;;;0.98;;
6173;SDS011;3120;48.796;9.796;2024-02-23T08:06:51;10.60;;;1.73;;
6173;SDS011;3120;48.796;9.796;2024-02-23T08:09:16;7.20;;;2.42;;
6173;SDS011;3120;48.796;9.796;2024-02-23T08:11:42;14.45;;;3.40;;
6173;SDS011;3120;48.796;9.796;2024-02-23T08:14:08;6.20;;;2.05;;
6173;SDS011;3120;48.796;9.796;2024-02-23T08:16:34;3.88;;;1.30;;
6173;SDS011;3120;48.796;9.796;2024-02-23T08:19:00;3.60;;;1.15;;
6173;SDS011;3120;48.796;9.796;2024-02-23T08:21:26;5.95;;;1.00;;
6173;SDS011;3120;48.796;9.796;2024-02-23T08:23:51;4.75;;;0.90;;
6173;SDS011;3120;48.796;9.796;2024-02-23T08:26:18;4.82;;;1.38;;
6173;SDS011;3120;48.796;9.796;2024-02-23T08:28:44;2.08;;;0.68;;
6173;SDS011;3120;48.796;9.796;2024-02-23T08:31:09;3.00;;;0.73;;
6173;SDS011;3120;48.796;9.796;2024-02-23T08:33:35;1.67;;;0.60;;
6173;SDS011;3120;48.796;9.796;2024-02-23T08:36:00;5.10;;;1.30;;
6173;SDS011;3120;48.796;9.796;2024-02-23T08:38:26;2.83;;;0.70;;
6173;SDS011;3120;48.796;9.796;2024-02-23T08:40:52;7.07;;;1.63;;
6173;SDS011;3120;48.796;9.796;2024-02-23T08:43:17;6.25;;;1.20;;
6173;SDS011;3120;48.796;9.796;2024-02-23T08:45:43;10.52;;;1.00;;
6173;SDS011;3120;48.796;9.796;2024-02-23T08:48:08;4.85;;;0.60;;
6173;SDS011;3120;48.796;9.796;2024-02-23T08:50:34;5.93;;;0.88;;
6173;SDS011;3120;48.796;9.796;2024-02-23T08:52:59;4.47;;;0.73;;
6173;SDS011;3120;48.796;9.796;2024-02-23T08:55:25;2.35;;;0.60;;
6173;SDS011;3120;48.796;9.796;2024-02-23T08:57:51;4.60;;;1.13;;
6173;SDS011;3120;48.796;9.796;2024-02-23T09:00:16;6.18;;;0.68;;
6173;SDS011;3120;48.796;9.796;2024-02-23T09:02:42;11.88;;;1.20;;
6173;SDS011;3120;48.796;9.796;2024-02-23T09:05:08;3.10;;;0.95;;
6173;SDS011;3120;48.796;9.796;2024-02-23T09:07:34;2.35;;;0.70;;
6173;SDS011;3120;48.796;9.796;2024-02-23T09:10:00;3.08;;;1.17;;
6173;SDS011;3120;48.796;9.796;2024-02-23T09:12:26;1.48;;;0.98;;
6173;SDS011;3120;48.796;9.796;2024-02-23T09:14:52;6.53;;;0.85;;
6173;SDS011;3120;48.796;9.796;2024-02-23T09:17:17;1.73;;;0.80;;
6173;SDS011;3120;48.796;9.796;2024-02-23T09:19:45;2.10;;;0.60;;
6173;SDS011;3120;48.796;9.796;2024-02-23T09:22:10;5.55;;;0.85;;
6173;SDS011;3120;48.796;9.796;2024-02-23T09:24:39;3.08;;;0.57;;
6173;SDS011;3120;48.796;9.796;2024-02-23T09:27:05;3.75;;;1.00;;
6173;SDS011;3120;48.796;9.796;2024-02-23T09:29:33;2.30;;;0.85;;
6173;SDS011;3120;48.796;9.796;2024-02-23T09:31:59;2.58;;;0.77;;
6173;SDS011;3120;48.796;9.796;2024-02-23T09:34:25;3.65;;;0.85;;
6173;SDS011;3120;48.796;9.796;2024-02-23T09:36:51;1.98;;;0.68;;
6173;SDS011;3120;48.796;9.796;2024-02-23T09:39:17;2.55;;;0.65;;
6173;SDS011;3120;48.796;9.796;2024-02-23T09:41:42;3.92;;;1.00;;
6173;SDS011;3120;48.796;9.796;2024-02-23T09:44:08;5.90;;;1.13;;
6173;SDS011;3120;48.796;9.796;2024-02-23T09:46:36;2.75;;;0.65;;
6173;SDS011;3120;48.796;9.796;2024-02-23T09:49:02;3.50;;;0.65;;
6173;SDS011;3120;48.796;9.796;2024-02-23T09:51:31;5.53;;;1.02;;
6173;SDS011;3120;48.796;9.796;2024-02-23T09:53:58;2.65;;;0.60;;
6173;SDS011;3120;48.796;9.796;2024-02-23T09:56:25;1.40;;;0.40;;
6173;SDS011;3120;48.796;9.796;2024-02-23T09:58:54;5.25;;;0.77;;
6173;SDS011;3120;48.796;9.796;2024-02-23T10:01:24;4.50;;;0.75;;
6173;SDS011;3120;48.796;9.796;2024-02-23T10:03:56;1.93;;;0.60;;
6173;SDS011;3120;48.796;9.796;2024-02-23T10:06:24;4.72;;;0.50;;
6173;SDS011;3120;48.796;9.796;2024-02-23T10:08:50;1.95;;;1.00;;
6173;SDS011;3120;48.796;9.796;2024-02-23T10:11:22;4.72;;;0.77;;
6173;SDS011;3120;48.796;9.796;2024-02-23T10:13:49;1.50;;;0.40;;
6173;SDS011;3120;48.796;9.796;2024-02-23T10:16:15;0.95;;;0.38;;
6173;SDS011;3120;48.796;9.796;2024-02-23T10:18:41;2.25;;;0.30;;
6173;SDS011;3120;48.796;9.796;2024-02-23T10:21:07;2.83;;;0.60;;
6173;SDS011;3120;48.796;9.796;2024-02-23T10:23:33;5.65;;;0.50;;
6173;SDS011;3120;48.796;9.796;2024-02-23T10:25:59;5.82;;;1.05;;
6173;SDS011;3120;48.796;9.796;2024-02-23T10:28:24;14.55;;;7.10;;
6173;SDS011;3120;48.796;9.796;2024-02-23T10:30:50;4.70;;;1.02;;
6173;SDS011;3120;48.796;9.796;2024-02-23T10:33:15;4.35;;;1.52;;
6173;SDS011;3120;48.796;9.796;2024-02-23T10:35:44;2.90;;;0.80;;
6173;SDS011;3120;48.796;9.796;2024-02-23T10:38:11;6.53;;;0.52;;
6173;SDS011;3120;48.796;9.796;2024-02-23T10:40:40;7.03;;;0.88;;
6173;SDS011;3120;48.796;9.796;2024-02-23T10:43:10;2.78;;;0.55;;
6173;SDS011;3120;48.796;9.796;2024-02-23T10:45:41;3.65;;;0.60;;
6173;SDS011;3120;48.796;9.796;2024-02-23T10:48:09;0.57;;;0.40;;
6173;SDS011;3120;48.796;9.796;2024-02-23T10:50:36;1.75;;;0.55;;
6173;SDS011;3120;48.796;9.796;2024-02-23T10:53:04;1.88;;;0.50;;
6173;SDS011;3120;48.796;9.796;2024-02-23T10:55:32;5.45;;;0.35;;
6173;SDS011;3120;48.796;9.796;2024-02-23T10:57:58;3.10;;;0.43;;
6173;SDS011;3120;48.796;9.796;2024-02-23T11:00:24;2.63;;;0.70;;
6173;SDS011;3120;48.796;9.796;2024-02-23T11:02:51;7.43;;;1.60;;
6173;SDS011;3120;48.796;9.796;2024-02-23T11:05:18;2.67;;;0.70;;
6173;SDS011;3120;48.796;9.796;2024-02-23T11:07:46;6.65;;;0.50;;
6173;SDS011;3120;48.796;9.796;2024-02-23T11:10:14;4.25;;;0.68;;
6173;SDS011;3120;48.796;9.796;2024-02-23T11:12:40;1.88;;;0.47;;
6173;SDS011;3120;48.796;9.796;2024-02-23T11:15:06;1.80;;;0.30;;
6173;SDS011;3120;48.796;9.796;2024-02-23T11:17:33;1.98;;;0.50;;
6173;SDS011;3120;48.796;9.796;2024-02-23T11:20:02;2.83;;;0.65;;
6173;SDS011;3120;48.796;9.796;2024-02-23T11:22:33;3.22;;;0.60;;
6173;SDS011;3120;48.796;9.796;2024-02-23T11:25:03;6.70;;;0.80;;
6173;SDS011;3120;48.796;9.796;2024-02-23T11:27:35;2.53;;;0.35;;
6173;SDS011;3120;48.796;9.796;2024-02-23T11:30:03;6.25;;;0.50;;
6173;SDS011;3120;48.796;9.796;2024-02-23T11:32:37;4.13;;;0.65;;
6173;SDS011;3120;48.796;9.796;2024-02-23T11:35:07;5.20;;;0.85;;
6173;SDS011;3120;48.796;9.796;2024-02-23T11:37:43;7.65;;;0.50;;
6173;SDS011;3120;48.796;9.796;2024-02-23T11:40:28;3.75;;;0.82;;
6173;SDS011;3120;48.796;9.796;2024-02-23T11:42:55;3.80;;;0.60;;
6173;SDS011;3120;48.796;9.796;2024-02-23T11:45:21;4.07;;;0.75;;
6173;SDS011;3120;48.796;9.796;2024-02-23T11:47:47;5.70;;;1.20;;
6173;SDS011;3120;48.796;9.796;2024-02-23T11:50:13;4.97;;;1.50;;
6173;SDS011;3120;48.796;9.796;2024-02-23T11:52:40;5.45;;;0.80;;
6173;SDS011;3120;48.796;9.796;2024-02-23T11:55:06;5.85;;;1.02;;
6173;SDS011;3120;48.796;9.796;2024-02-23T11:57:33;1.58;;;0.50;;
6173;SDS011;3120;48.796;9.796;2024-02-23T12:00:01;4.90;;;0.60;;
6173;SDS011;3120;48.796;9.796;2024-02-23T12:02:28;5.15;;;1.60;;
6173;SDS011;3120;48.796;9.796;2024-02-23T12:04:53;5.95;;;1.20;;
6173;SDS011;3120;48.796;9.796;2024-02-23T12:07:19;7.82;;;2.22;;
6173;SDS011;3120;48.796;9.796;2024-02-23T12:09:46;12.23;;;2.78;;
6173;SDS011;3120;48.796;9.796;2024-02-23T12:12:12;6.97;;;1.35;;
6173;SDS011;3120;48.796;9.796;2024-02-23T12:14:39;12.35;;;4.38;;
6173;SDS011;3120;48.796;9.796;2024-02-23T12:17:05;11.50;;;1.70;;
6173;SDS011;3120;48.796;9.796;2024-02-23T12:19:37;7.25;;;1.95;;
6173;SDS011;3120;48.796;9.796;2024-02-23T12:22:04;14.40;;;3.92;;
6173;SDS011;3120;48.796;9.796;2024-02-23T12:24:29;7.30;;;1.02;;
6173;SDS011;3120;48.796;9.796;2024-02-23T12:26:55;5.47;;;0.70;;
6173;SDS011;3120;48.796;9.796;2024-02-23T12:29:21;4.32;;;0.90;;
6173;SDS011;3120;48.796;9.796;2024-02-23T12:31:48;9.10;;;1.50;;
6173;SDS011;3120;48.796;9.796;2024-02-23T12:34:14;4.63;;;0.98;;
6173;SDS011;3120;48.796;9.796;2024-02-23T12:36:40;8.02;;;0.50;;
6173;SDS011;3120;48.796;9.796;2024-02-23T12:39:06;5.25;;;0.30;;
6173;SDS011;3120;48.796;9.796;2024-02-23T12:41:32;3.63;;;0.50;;
6173;SDS011;3120;48.796;9.796;2024-02-23T12:43:58;2.28;;;0.70;;
6173;SDS011;3120;48.796;9.796;2024-02-23T12:46:23;6.82;;;0.63;;
6173;SDS011;3120;48.796;9.796;2024-02-23T12:48:49;2.70;;;0.55;;
6173;SDS011;3120;48.796;9.796;2024-02-23T12:51:15;6.68;;;0.63;;
6173;SDS011;3120;48.796;9.796;2024-02-23T12:53:41;7.95;;;0.90;;
6173;SDS011;3120;48.796;9.796;2024-02-23T12:56:09;5.35;;;0.60;;
6173;SDS011;3120;48.796;9.796;2024-02-23T12:58:39;3.58;;;0.50;;
6173;SDS011;3120;48.796;9.796;2024-02-23T13:01:06;3.70;;;0.98;;
6173;SDS011;3120;48.796;9.796;2024-02-23T13:03:36;7.55;;;0.85;;
6173;SDS011;3120;48.796;9.796;2024-02-23T13:06:03;9.75;;;0.80;;
6173;SDS011;3120;48.796;9.796;2024-02-23T13:08:29;4.50;;;1.00;;
6173;SDS011;3120;48.796;9.796;2024-02-23T13:10:56;9.00;;;1.00;;
6173;SDS011;3120;48.796;9.796;2024-02-23T13:13:22;8.60;;;0.63;;
6173;SDS011;3120;48.796;9.796;2024-02-23T13:15:49;4.03;;;0.57;;
6173;SDS011;3120;48.796;9.796;2024-02-23T13:18:16;6.70;;;0.70;;
6173;SDS011;3120;48.796;9.796;2024-02-23T13:20:42;10.10;;;0.82;;
6173;SDS011;3120;48.796;9.796;2024-02-23T13:23:08;15.32;;;2.88;;
6173;SDS011;3120;48.796;9.796;2024-02-23T13:25:38;21.55;;;6.97;;
6173;SDS011;3120;48.796;9.796;2024-02-23T13:28:04;11.60;;;2.63;;
6173;SDS011;3120;48.796;9.796;2024-02-23T13:30:31;20.70;;;3.97;;
6173;SDS011;3120;48.796;9.796;2024-02-23T13:32:57;13.02;;;1.80;;
6173;SDS011;3120;48.796;9.796;2024-02-23T13:35:23;8.18;;;0.80;;
6173;SDS011;3120;48.796;9.796;2024-02-23T13:37:48;15.75;;;3.55;;
6173;SDS011;3120;48.796;9.796;2024-02-23T13:40:14;11.10;;;2.88;;
6173;SDS011;3120;48.796;9.796;2024-02-23T13:42:40;12.13;;;1.60;;
6173;SDS011;3120;48.796;9.796;2024-02-23T13:45:06;30.20;;;7.57;;
6173;SDS011;3120;48.796;9.796;2024-02-23T13:47:33;12.90;;;2.83;;
6173;SDS011;3120;48.796;9.796;2024-02-23T13:49:59;4.97;;;1.00;;
6173;SDS011;3120;48.796;9.796;2024-02-23T13:52:25;8.00;;;1.35;;
6173;SDS011;3120;48.796;9.796;2024-02-23T13:54:51;8.73;;;1.50;;
6173;SDS011;3120;48.796;9.796;2024-02-23T13:57:17;8.48;;;1.50;;
6173;SDS011;3120;48.796;9.796;2024-02-23T13:59:43;6.30;;;1.30;;
6173;SDS011;3120;48.796;9.796;2024-02-23T14:02:08;7.20;;;0.88;;
6173;SDS011;3120;48.796;9.796;2024-02-23T14:04:34;6.63;;;0.75;;
6173;SDS011;3120;48.796;9.796;2024-02-23T14:07:00;2.97;;;0.57;;
6173;SDS011;3120;48.796;9.796;2024-02-23T14:09:26;5.53;;;1.15;;
6173;SDS011;3120;48.796;9.796;2024-02-23T14:11:51;7.40;;;0.77;;
6173;SDS011;3120;48.796;9.796;2024-02-23T14:14:17;5.07;;;1.15;;
6173;SDS011;3120;48.796;9.796;2024-02-23T14:16:43;4.85;;;1.13;;
6173;SDS011;3120;48.796;9.796;2024-02-23T14:19:09;5.93;;;1.60;;
6173;SDS011;3120;48.796;9.796;2024-02-23T14:21:34;6.93;;;1.90;;
6173;SDS011;3120;48.796;9.796;2024-02-23T14:24:02;3.90;;;0.73;;
6173;SDS011;3120;48.796;9.796;2024-02-23T14:26:28;4.47;;;0.68;;
6173;SDS011;3120;48.796;9.796;2024-02-23T14:28:58;10.27;;;0.85;;
6173;SDS011;3120;48.796;9.796;2024-02-23T14:31:24;12.02;;;1.13;;
6173;SDS011;3120;48.796;9.796;2024-02-23T14:33:50;11.93;;;1.30;;
6173;SDS011;3120;48.796;9.796;2024-02-23T14:36:17;14.55;;;1.20;;
6173;SDS011;3120;48.796;9.796;2024-02-23T14:38:43;7.65;;;1.08;;
6173;SDS011;3120;48.796;9.796;2024-02-23T14:41:09;11.77;;;0.70;;
6173;SDS011;3120;48.796;9.796;2024-02-23T14:43:35;12.43;;;0.80;;
6173;SDS011;3120;48.796;9.796;2024-02-23T14:46:01;6.65;;;1.40;;
6173;SDS011;3120;48.796;9.796;2024-02-23T14:48:27;9.38;;;1.35;;
6173;SDS011;3120;48.796;9.796;2024-02-23T14:50:52;5.63;;;1.17;;
6173;SDS011;3120;48.796;9.796;2024-02-23T14:53:18;5.28;;;0.90;;
6173;SDS011;3120;48.796;9.796;2024-02-23T14:55:44;8.48;;;1.00;;
6173;SDS011;3120;48.796;9.796;2024-02-23T14:58:09;14.23;;;1.38;;
6173;SDS011;3120;48.796;9.796;2024-02-23T15:00:38;9.25;;;2.30;;
6173;SDS011;3120;48.796;9.796;2024-02-23T15:03:04;7.72;;;1.08;;
6173;SDS011;3120;48.796;9.796;2024-02-23T15:05:30;9.70;;;1.15;;
6173;SDS011;3120;48.796;9.796;2024-02-23T15:07:55;7.60;;;1.13;;
6173;SDS011;3120;48.796;9.796;2024-02-23T15:10:21;2.75;;;0.73;;